Date,TemperatureHighF,TemperatureAvgF,TemperatureLowF,DewpointHighF,DewpointAvgF,DewpointLowF,HumidityHigh,HumidityAvg,HumidityLow,PressureMaxIn,PressureMinIn,WindSpeedMaxMPH,WindSpeedAvgMPH,GustSpeedMaxMPH,PrecipitationSumIn
2013-1-1,64,57,48,63,56,47,100,97,93,30.11,29.89,9,2,18,1.37
2013-1-2,48,44,40,47,42,39,97,93,88,30.26,30.09,8,3,14,0.06
2013-1-3,53,41,35,39,35,32,96,79,52,30.39,30.23,8,3,15,0.00
2013-1-4,57,44,34,38,34,31,93,68,38,30.46,30.33,9,2,12,0.00
2013-1-5,54,47,42,45,40,36,96,77,56,30.36,30.22,9,2,11,0.11
2013-1-6,53,46,39,48,45,38,98,94,80,30.30,30.18,9,3,11,0.82
2013-1-7,61,47,34,47,41,33,99,82,47,30.32,30.15,7,1,13,0.01
2013-1-8,63,56,47,63,54,43,100,92,77,30.19,30.05,9,2,15,2.74
2013-1-9,68,64,60,68,64,60,100,100,99,30.16,30.07,14,3,18,2.18
2013-1-10,69,66,63,69,66,63,100,99,98,30.14,29.96,16,4,22,1.37
2013-1-11,70,67,63,71,67,63,100,99,94,30.08,29.97,4,1,8,0.46
2013-1-12,79,72,69,71,69,67,100,91,69,30.02,29.87,12,3,22,0.01
2013-1-13,77,64,46,72,62,46,98,94,85,30.09,29.78,14,5,25,1.46
2013-1-14,46,43,38,46,42,37,99,98,95,30.16,30.04,11,4,18,1.77
2013-1-15,44,42,38,44,42,38,99,99,98,30.09,29.96,12,3,13,0.72
2013-1-16,38,37,36,37,36,35,98,97,96,30.16,30.02,11,4,15,0.13
2013-1-17,54,42,34,40,36,33,99,84,51,30.43,30.16,12,3,17,0.01
2013-1-18,60,43,32,39,35,31,99,79,36,30.53,30.38,8,2,12,0.02
2013-1-19,66,45,31,50,41,30,100,87,54,30.39,30.21,5,1,10,0.00
2013-1-20,68,48,34,49,40,33,100,78,35,30.26,30.12,5,1,9,0.00
2013-1-21,68,51,36,50,43,35,100,78,46,30.22,30.13,8,1,10,0.00
2013-1-22,66,49,40,48,42,37,97,77,46,30.35,30.21,6,1,10,0.00
2013-1-23,72,55,36,52,45,36,100,76,40,30.38,30.26,8,1,11,0.00
2013-1-24,73,59,43,61,54,42,100,85,64,30.32,30.19,8,1,15,0.00
2013-1-25,76,62,48,61,56,48,100,84,58,30.23,30.11,12,2,17,0.00
2013-1-26,76,60,50,65,57,50,100,90,61,30.24,30.14,5,0,11,0.00
2013-1-27,74,60,47,63,57,47,100,88,66,30.25,30.15,14,2,15,0.01
2013-1-28,75,65,56,67,62,55,100,92,75,30.23,30.09,10,2,15,0.00
2013-1-29,80,72,65,71,68,65,99,89,68,30.09,29.73,24,4,24,0.01
2013-1-30,74,57,37,70,48,33,98,75,42,30.19,29.65,18,6,28,0.76
2013-1-31,61,46,32,40,34,27,99,68,28,30.33,30.18,8,1,11,0.00
2013-2-1,66,49,38,43,39,35,97,75,32,30.40,30.29,9,1,10,0.00
2013-2-2,71,53,37,53,45,36,99,78,44,30.32,30.15,9,2,13,0.00
2013-2-3,69,54,40,53,41,29,99,70,23,30.28,30.10,9,2,16,0.00
2013-2-4,60,50,39,54,47,38,98,91,74,30.10,29.93,6,1,8,0.09
2013-2-5,72,60,52,63,58,51,100,93,72,30.02,29.92,6,0,8,0.01
2013-2-6,66,57,48,62,56,48,100,96,86,30.10,29.96,7,2,12,0.14
2013-2-7,70,60,52,62,58,51,100,93,75,29.97,29.82,9,2,19,0.76
2013-2-8,70,58,51,61,55,50,100,90,70,30.16,29.95,12,3,16,0.00
2013-2-9,65,57,48,60,53,46,95,87,74,30.22,30.02,11,4,14,0.01
2013-2-10,77,68,61,72,66,60,99,94,80,30.01,29.85,11,4,21,0.25
2013-2-11,64,57,54,64,56,53,100,98,92,30.14,29.94,12,3,21,0.90
2013-2-12,65,58,54,65,57,53,100,99,93,30.04,29.73,10,3,17,0.31
2013-2-13,57,50,38,53,46,38,97,85,65,30.08,29.86,12,3,16,0.01
2013-2-14,61,46,34,45,39,33,100,82,44,30.15,30.05,6,1,9,0.01
2013-2-15,66,51,34,47,40,33,100,71,39,30.18,30.07,11,3,15,0.00
2013-2-16,53,45,32,42,30,22,93,60,31,30.32,30.18,17,5,23,0.00
2013-2-17,64,47,30,42,35,28,97,69,38,30.34,30.19,10,2,15,0.00
2013-2-18,67,54,38,63,51,37,99,91,69,30.21,29.93,18,4,19,0.65
2013-2-19,66,57,45,61,44,27,99,66,28,30.24,29.94,12,4,17,0.43
2013-2-20,61,50,37,41,34,29,90,58,32,30.25,30.01,10,3,18,0.00
2013-2-21,72,61,49,70,55,39,99,83,67,30.01,29.73,15,5,23,0.32
2013-2-22,71,61,54,70,56,50,97,85,57,29.97,29.84,9,2,14,0.90
2013-2-23,63,55,50,55,52,48,98,90,74,29.96,29.86,7,2,10,0.00
2013-2-24,72,57,42,59,52,41,99,84,56,29.98,29.71,9,2,19,0.72
2013-2-25,65,62,57,64,60,44,99,94,62,29.73,29.41,11,5,23,0.68
2013-2-26,59,51,44,44,40,36,97,68,51,29.92,29.56,15,4,23,0.00
2013-2-27,70,55,41,49,43,38,100,69,33,30.05,29.92,11,2,19,0.00
2013-2-28,52,46,37,39,36,32,93,70,49,30.16,30.05,11,3,15,0.00
2013-3-1,59,46,34,39,35,30,97,70,37,30.17,30.06,16,3,19,0.00
2013-3-2,46,37,28,35,30,27,98,77,54,30.26,30.16,19,3,19,0.00
2013-3-3,57,40,24,37,30,24,98,73,37,30.30,30.11,10,1,12,0.01
2013-3-4,71,55,33,59,48,32,99,79,54,30.11,29.90,14,4,25,0.00
2013-3-5,74,64,48,64,53,36,96,71,35,30.21,29.89,15,4,22,0.00
2013-3-6,64,50,34,34,30,27,91,51,25,30.34,30.20,10,4,16,0.00
2013-3-7,65,48,31,42,36,30,98,69,33,30.36,30.21,7,1,11,0.00
2013-3-8,72,53,34,49,41,34,99,71,33,30.29,30.13,10,1,13,0.00
2013-3-9,70,59,46,61,55,45,99,85,70,30.15,29.93,12,4,18,0.00
2013-3-10,78,68,58,69,62,56,96,84,62,29.94,29.81,19,4,28,0.09
2013-3-11,60,50,42,55,44,39,98,82,48,30.04,29.89,17,4,24,1.57
2013-3-12,68,50,34,44,39,34,99,72,34,30.21,30.04,11,2,16,0.00
2013-3-13,67,53,37,40,31,20,97,51,17,30.40,30.23,13,3,18,0.00
2013-3-14,72,51,34,43,35,27,96,59,27,30.44,30.28,8,1,10,0.00
2013-3-15,76,58,39,54,45,38,100,69,33,30.30,30.10,14,2,17,0.00
2013-3-16,78,61,44,59,52,43,100,75,44,30.12,29.92,9,2,18,0.00
2013-3-17,79,65,51,66,59,51,100,83,57,29.95,29.78,11,2,17,0.01
2013-3-18,84,73,67,70,67,63,97,81,56,29.90,29.73,10,2,14,0.00
2013-3-19,78,64,52,63,51,45,93,66,40,30.02,29.91,10,3,18,0.00
2013-3-20,71,59,46,53,41,31,92,56,25,30.17,29.99,13,3,18,0.03
2013-3-21,68,54,40,48,40,31,92,64,29,30.05,29.83,10,2,15,0.00
2013-3-22,77,64,55,69,60,48,98,87,75,29.89,29.73,7,2,14,0.05
2013-3-23,70,67,66,68,67,65,100,97,93,29.80,29.55,7,1,10,0.00
2013-3-24,69,59,46,68,50,33,99,75,35,30.03,29.59,17,5,29,0.00
2013-3-25,59,47,35,33,28,22,85,53,26,30.27,30.04,15,5,20,0.00
2013-3-26,56,44,29,34,28,24,95,58,33,30.41,30.27,12,3,16,0.00
2013-3-27,65,46,29,40,33,28,98,68,29,30.44,30.25,9,1,9,0.00
2013-3-28,72,52,33,46,40,32,99,69,31,30.35,30.21,7,1,10,0.00
2013-3-29,77,58,39,55,48,39,100,72,35,30.30,30.15,8,1,16,0.00
2013-3-30,77,63,47,62,55,46,100,77,46,30.18,29.99,7,2,15,0.00
2013-3-31,76,61,52,67,59,52,100,94,69,30.03,29.88,16,1,35,0.47
2013-4-1,78,62,52,62,56,52,100,85,49,30.09,29.93,7,1,10,0.01
2013-4-2,78,62,47,64,56,47,100,83,52,30.10,29.95,6,1,14,0.00
2013-4-3,64,59,51,63,58,50,99,96,88,30.02,29.80,10,3,17,1.11
2013-4-4,56,52,48,52,50,46,99,93,82,30.05,29.91,11,3,14,0.01
2013-4-5,68,54,47,54,48,45,97,82,54,30.19,30.05,12,4,15,0.00
2013-4-6,75,58,41,58,50,41,100,80,48,30.14,30.01,9,2,16,0.01
2013-4-7,78,65,51,64,59,50,100,82,59,30.07,29.95,8,2,14,0.00
2013-4-8,82,68,54,68,62,54,100,85,55,29.99,29.88,14,2,18,0.00
2013-4-9,86,76,69,75,71,67,97,85,65,29.97,29.88,19,3,19,0.00
2013-4-10,84,77,73,74,72,70,95,84,68,29.93,29.77,15,4,21,0.00
2013-4-11,74,64,51,73,62,50,98,92,77,29.84,29.66,9,3,24,0.83
2013-4-12,76,58,43,56,49,42,100,76,34,29.99,29.84,15,2,18,0.01
2013-4-13,81,63,46,58,51,45,100,71,36,30.03,29.86,8,2,14,0.11
2013-4-14,77,64,57,68,61,57,99,91,69,29.86,29.72,8,2,17,3.01
2013-4-15,79,70,58,74,68,58,100,95,81,29.94,29.80,6,1,12,0.06
2013-4-16,84,77,72,76,74,72,99,90,74,30.05,29.93,8,2,13,0.00
2013-4-17,85,77,72,76,73,71,96,87,72,30.05,29.91,11,2,16,0.00
2013-4-18,83,76,58,75,71,56,95,84,72,29.90,29.74,14,4,28,0.05
2013-4-19,61,53,43,56,46,41,97,79,48,30.18,29.89,15,4,20,0.11
2013-4-20,71,54,37,51,44,36,100,74,36,30.26,30.10,8,1,17,0.00
2013-4-21,76,58,41,55,47,40,99,72,36,30.21,30.08,7,1,15,0.00
2013-4-22,80,64,46,64,55,46,100,77,45,30.13,29.98,7,1,11,0.00
2013-4-23,83,73,63,72,68,62,99,84,60,30.05,29.93,8,2,19,0.00
2013-4-24,69,64,57,69,62,54,99,94,88,30.19,29.98,11,3,18,0.63
2013-4-25,73,60,52,58,52,47,96,77,42,30.31,30.19,12,3,13,0.00
2013-4-26,80,66,51,67,59,50,98,80,56,30.25,30.17,10,1,13,0.00
2013-4-27,84,73,64,72,66,62,99,81,54,30.18,30.00,10,2,18,0.00
2013-4-28,78,70,62,70,67,62,99,90,74,30.04,29.91,7,1,10,0.21
2013-4-29,84,69,55,69,62,55,100,81,46,29.96,29.84,4,1,9,0.01
2013-4-30,75,67,60,71,66,59,100,96,86,29.90,29.82,6,1,16,0.24
2013-5-1,79,70,65,72,68,65,100,94,77,29.89,29.80,5,1,11,0.24
2013-5-2,76,67,64,70,64,-100,99,93,78,29.95,29.85,8,-11,11,0.17
2013-5-3,67,55,42,66,53,41,100,93,81,30.05,29.88,12,4,21,0.03
2013-5-4,73,56,37,52,44,36,100,71,33,30.03,29.85,13,2,15,0.00
2013-5-5,64,54,45,52,46,43,97,76,50,30.04,29.88,12,3,21,0.00
2013-5-6,75,59,42,59,51,42,100,77,47,30.05,29.92,11,2,19,0.00
2013-5-7,81,66,50,62,56,50,100,76,41,30.05,29.97,11,2,15,0.00
2013-5-8,84,68,52,66,60,52,100,78,48,30.09,30.01,7,1,10,0.00
2013-5-9,83,71,57,69,65,57,100,83,58,30.08,29.98,8,2,14,0.00
2013-5-10,72,68,62,70,66,61,100,96,89,30.04,29.84,7,2,15,2.55
2013-5-11,78,69,60,71,66,60,100,90,75,30.05,29.89,5,1,11,0.30
2013-5-12,80,68,55,63,60,53,100,78,51,30.15,30.04,9,2,14,0.01
2013-5-13,81,64,47,62,52,46,99,71,35,30.29,30.16,7,1,11,0.00
2013-5-14,86,69,52,65,57,51,100,72,37,30.26,30.12,6,1,10,0.00
2013-5-15,83,68,54,69,61,54,100,82,51,30.18,30.00,8,1,14,0.00
2013-5-16,85,72,58,70,65,58,100,80,52,30.02,29.87,9,2,15,0.00
2013-5-17,87,77,66,74,70,66,100,82,61,30.00,29.92,8,2,13,0.00
2013-5-18,89,79,70,75,72,69,98,81,57,30.04,29.96,7,1,13,0.00
2013-5-19,89,78,67,76,72,67,100,84,60,29.98,29.90,9,2,14,0.00
2013-5-20,90,80,75,77,75,73,96,84,62,29.98,29.86,14,3,15,0.01
2013-5-21,89,80,73,76,74,72,99,82,61,29.94,29.77,7,2,16,0.01
2013-5-22,84,73,67,74,71,67,99,91,70,29.96,29.85,9,1,15,2.41
2013-5-23,90,75,65,79,71,64,100,88,62,30.04,29.94,6,1,15,0.12
2013-5-24,89,76,64,76,70,63,100,84,64,30.13,30.02,9,1,12,0.01
2013-5-25,87,75,64,71,66,60,96,76,51,30.21,30.10,7,1,11,0.00
2013-5-26,87,74,65,72,68,64,100,82,48,30.17,30.08,6,1,9,0.00
2013-5-27,89,75,62,75,68,62,100,82,53,30.11,29.98,6,1,14,0.05
2013-5-28,86,75,66,75,70,65,100,85,68,30.05,29.95,11,2,16,0.00
2013-5-29,83,74,66,78,72,65,100,94,80,29.99,29.91,10,1,20,0.86
2013-5-30,86,78,72,78,75,71,100,90,70,29.98,29.89,12,2,19,0.03
2013-5-31,88,80,73,80,76,73,100,89,73,29.98,29.90,9,2,14,0.01
2013-6-1,91,81,72,79,75,71,100,85,60,29.95,29.87,7,1,13,0.01
2013-6-2,86,77,68,78,74,68,100,90,71,30.02,29.85,9,2,12,0.23
2013-6-3,90,79,71,77,74,70,99,85,60,29.92,29.82,6,1,9,0.00
2013-6-4,92,81,71,80,75,71,100,83,61,29.92,29.82,3,1,11,0.02
2013-6-5,92,81,71,80,76,70,100,84,62,29.90,29.77,8,1,11,0.00
2013-6-6,88,79,70,78,74,68,99,85,52,29.86,29.70,8,2,16,0.08
2013-6-7,87,76,70,74,71,69,100,86,60,29.88,29.78,5,1,10,0.16
2013-6-8,89,76,67,77,71,66,100,85,62,29.95,29.86,6,1,14,0.00
2013-6-9,90,76,69,77,72,69,100,89,60,29.95,29.86,7,1,19,0.44
2013-6-10,90,79,70,80,75,70,100,89,65,30.00,29.94,5,1,12,0.02
2013-6-11,94,82,72,81,76,71,100,83,56,30.07,29.98,4,1,12,0.00
2013-6-12,93,82,71,81,76,71,100,84,55,30.07,29.98,5,1,9,0.00
2013-6-13,93,82,70,80,76,70,100,84,59,30.05,29.88,9,2,13,0.00
2013-6-14,94,83,74,82,77,70,99,83,63,29.93,29.84,8,2,12,0.00
2013-6-15,94,80,67,80,74,66,98,81,56,29.99,29.90,4,1,8,0.00
2013-6-16,93,82,73,80,77,72,99,84,60,30.03,29.94,6,1,11,0.00
2013-6-17,93,82,71,79,75,71,100,79,53,30.01,29.90,9,2,15,0.00
2013-6-18,93,82,72,78,74,70,99,80,56,29.99,29.86,9,2,17,0.00
2013-6-19,84,76,71,77,73,70,99,92,76,30.04,29.93,5,1,8,0.43
2013-6-20,90,79,70,79,74,69,100,85,60,30.09,30.00,6,1,17,0.01
2013-6-21,93,80,69,79,74,68,99,82,55,30.10,30.02,5,1,9,0.00
2013-6-22,92,80,70,79,75,70,100,86,61,30.08,29.98,5,1,9,0.01
2013-6-23,92,78,69,79,74,69,100,87,60,30.06,29.97,9,1,18,0.04
2013-6-24,88,79,70,79,75,70,100,88,68,30.11,30.01,6,1,16,0.22
2013-6-25,92,81,70,79,75,70,100,83,54,30.08,29.97,4,1,12,0.00
2013-6-26,94,82,69,79,74,69,100,80,52,30.04,29.93,7,1,10,0.00
2013-6-27,94,83,72,80,76,71,100,82,54,30.00,29.90,7,2,13,0.00
2013-6-28,94,84,74,80,77,74,99,80,56,29.94,29.75,11,2,13,0.00
2013-6-29,90,80,73,81,76,72,98,89,72,29.80,29.68,7,2,12,0.03
2013-6-30,91,80,68,77,69,62,100,74,39,29.80,29.71,9,2,17,0.00
2013-7-1,87,76,64,71,68,64,99,77,53,29.91,29.79,10,2,14,0.00
2013-7-2,89,77,64,73,68,64,99,77,51,29.99,29.89,7,1,9,0.00
2013-7-3,88,74,66,75,70,66,98,87,58,30.01,29.93,9,1,13,0.08
2013-7-4,89,78,67,76,72,67,100,84,56,29.96,29.89,6,1,10,0.19
2013-7-5,85,77,71,78,74,70,99,89,74,29.99,29.93,11,1,14,0.00
2013-7-6,87,76,69,78,73,69,100,91,70,29.99,29.92,7,1,11,0.00
2013-7-7,89,78,73,78,75,73,99,90,67,30.07,29.96,6,1,18,0.59
2013-7-8,91,78,70,79,74,70,100,91,61,30.14,30.04,4,1,11,0.02
2013-7-9,93,81,70,79,75,70,100,84,56,30.17,30.05,5,1,7,0.00
2013-7-10,94,83,73,79,76,73,100,81,56,30.09,29.94,6,1,12,0.00
2013-7-11,92,78,71,79,75,71,99,90,65,29.99,29.89,12,2,27,1.00
2013-7-12,94,80,71,80,74,71,100,83,53,29.94,29.83,7,2,12,0.00
2013-7-13,91,80,68,77,72,67,97,77,52,29.92,29.85,6,2,8,0.00
2013-7-14,90,76,70,78,72,67,99,88,61,29.99,29.88,13,1,21,0.04
2013-7-15,86,75,71,79,73,70,100,95,75,30.09,29.97,6,1,24,0.59
2013-7-16,86,77,71,78,75,71,100,92,74,30.15,30.06,11,2,14,0.01
2013-7-17,92,81,74,79,76,73,100,86,57,30.20,30.09,8,1,19,0.01
2013-7-18,91,79,71,78,74,70,100,86,55,30.14,29.99,8,1,16,0.08
2013-7-19,92,79,70,79,74,69,99,84,57,30.05,29.93,7,1,11,0.00
2013-7-20,91,80,71,79,74,70,100,85,57,29.98,29.90,7,1,10,0.00
2013-7-21,86,77,71,79,74,71,100,91,72,30.08,29.96,7,1,15,0.60
2013-7-22,90,80,71,82,77,71,100,91,72,30.04,29.97,6,1,14,0.04
2013-7-23,93,83,75,81,77,75,100,84,58,30.04,29.90,9,2,14,0.00
2013-7-24,92,83,74,79,76,71,95,82,62,29.97,29.86,11,2,23,0.00
2013-7-25,92,81,73,78,74,72,99,82,56,30.02,29.90,5,2,13,0.00
2013-7-26,93,80,68,78,73,67,99,81,50,30.05,29.93,8,1,18,0.00
2013-7-27,80,77,73,79,76,73,99,98,89,29.95,29.84,10,1,19,1.21
2013-7-28,91,79,70,79,74,70,100,87,60,29.99,29.88,8,1,8,0.01
2013-7-29,95,82,71,80,75,70,100,82,51,30.08,29.98,5,1,7,0.00
2013-7-30,94,83,74,81,77,74,100,84,62,30.13,30.03,5,1,8,0.00
2013-7-31,94,84,75,80,77,74,99,82,58,30.09,29.94,10,1,12,0.00
2013-8-1,93,81,74,80,76,71,99,84,59,30.02,29.89,7,1,17,0.00
2013-8-2,95,84,71,82,77,70,99,80,56,29.99,29.91,4,1,8,0.00
2013-8-3,94,83,72,80,77,72,100,82,51,30.05,29.97,7,1,12,0.00
2013-8-4,96,84,73,80,76,73,100,81,51,30.08,29.95,6,1,12,0.00
2013-8-5,95,84,73,80,76,73,100,81,53,30.04,29.92,8,2,12,0.00
2013-8-6,95,85,74,80,77,74,99,80,54,29.99,29.88,8,2,15,0.00
2013-8-7,96,84,74,80,77,73,99,80,51,29.97,29.86,7,1,11,0.00
2013-8-8,98,84,74,79,77,73,99,81,55,29.95,29.85,5,1,10,0.00
2013-8-9,91,80,75,81,77,75,99,91,66,30.00,29.90,6,1,15,0.20
2013-8-10,96,82,74,81,76,72,100,85,49,30.05,29.96,9,1,16,0.04
2013-8-11,89,79,72,80,76,72,100,91,71,30.09,30.03,5,1,17,0.20
2013-8-12,93,78,72,81,75,72,100,93,60,30.08,30.00,17,1,17,0.68
2013-8-13,91,78,72,82,75,71,100,93,66,30.03,29.92,10,2,20,1.33
2013-8-14,79,75,72,77,74,71,100,97,90,29.99,29.91,6,1,10,1.19
2013-8-15,88,77,70,78,73,70,100,89,61,29.98,29.89,7,1,9,0.01
2013-8-16,90,79,70,78,73,69,99,84,56,29.97,29.89,6,1,10,0.00
2013-8-17,87,78,70,77,73,69,98,86,68,29.96,29.90,11,2,13,0.00
2013-8-18,84,76,69,75,72,69,99,89,71,30.00,29.93,8,2,14,0.00
2013-8-19,88,78,71,77,74,70,99,87,65,30.04,29.95,6,1,8,0.02
2013-8-20,91,77,70,79,74,70,100,91,59,30.04,29.96,6,1,9,1.25
2013-8-21,91,77,71,81,74,71,100,93,63,30.10,30.01,7,1,15,0.01
2013-8-22,92,80,71,80,75,71,100,86,60,30.07,29.95,5,1,9,0.01
2013-8-23,92,80,72,79,75,72,100,87,59,29.99,29.90,9,2,14,0.03
2013-8-24,86,78,71,77,74,71,100,88,73,30.07,29.95,7,2,18,0.00
2013-8-25,86,78,72,79,74,71,99,89,72,30.14,30.05,7,2,14,0.00
2013-8-26,87,77,72,79,74,72,99,92,74,30.17,30.08,9,1,21,0.02
2013-8-27,88,76,68,74,71,67,100,84,54,30.11,30.01,8,1,10,0.01
2013-8-28,89,75,63,73,68,63,100,82,53,30.08,29.99,5,1,8,0.00
2013-8-29,91,76,64,76,69,64,100,81,50,30.07,29.96,5,1,7,0.00
2013-8-30,92,78,66,77,71,66,100,83,50,30.03,29.91,5,1,8,0.00
2013-8-31,93,79,67,78,73,67,100,83,53,29.97,29.84,6,1,8,0.00
2013-9-1,94,81,70,80,75,70,100,84,55,29.94,29.83,8,1,12,0.00
2013-9-2,95,82,72,79,75,71,100,82,52,29.97,29.84,9,1,12,0.00
2013-9-3,96,80,73,80,75,72,100,86,51,29.96,29.84,6,1,15,0.00
2013-9-4,92,79,71,80,75,70,100,87,63,30.05,29.93,5,1,8,0.00
2013-9-5,92,80,72,79,75,71,100,86,62,30.09,30.00,5,1,11,0.00
2013-9-6,93,79,71,78,74,71,100,86,54,30.09,29.96,6,1,12,0.01
2013-9-7,92,77,69,79,73,69,100,88,56,30.04,29.94,10,1,15,0.21
2013-9-8,93,76,66,77,71,66,100,87,52,30.00,29.90,5,1,14,0.04
2013-9-9,92,78,66,77,71,66,100,83,49,30.02,29.93,8,1,14,0.00
2013-9-10,93,79,67,78,73,67,100,84,54,30.09,29.99,7,1,13,0.00
2013-9-11,93,80,70,77,73,69,100,81,48,30.10,29.99,8,1,13,0.00
2013-9-12,95,80,68,77,70,67,100,77,42,30.03,29.89,6,1,12,0.00
2013-9-13,93,78,68,76,72,67,100,83,50,29.93,29.78,9,1,11,0.06
2013-9-14,91,78,70,74,71,69,100,81,53,29.95,29.85,6,1,11,0.01
2013-9-15,93,80,68,77,72,67,98,79,46,30.03,29.94,9,1,10,0.00
2013-9-16,94,79,68,78,73,68,100,83,50,30.06,29.96,7,1,13,0.00
2013-9-17,95,81,70,77,72,68,100,80,43,30.06,29.92,9,1,13,0.00
2013-9-18,92,80,70,80,74,70,100,85,59,30.03,29.94,9,1,15,0.00
2013-9-19,92,79,73,78,75,71,98,87,59,30.01,29.93,14,2,19,0.10
2013-9-20,92,81,73,80,76,73,100,87,61,29.96,29.77,9,2,22,0.01
2013-9-21,81,74,69,77,73,69,100,96,83,29.78,29.71,6,2,13,2.33
2013-9-22,83,73,66,69,67,63,99,81,51,29.82,29.73,7,2,13,0.00
2013-9-23,89,75,62,78,70,60,97,85,67,29.82,29.75,5,1,14,0.00
2013-9-24,90,79,71,81,76,70,99,91,68,29.83,29.75,11,2,19,0.26
2013-9-25,90,75,64,75,68,61,100,82,39,29.83,29.75,12,1,14,0.01
2013-9-26,89,73,59,71,65,59,100,81,49,29.93,29.80,5,1,11,0.00
2013-9-27,89,74,61,75,69,61,100,85,55,30.00,29.91,4,1,9,0.01
2013-9-28,88,75,65,74,69,65,100,84,50,30.05,29.96,6,1,10,0.00
2013-9-29,84,73,63,74,69,63,100,88,61,30.02,29.91,3,0,6,0.00
2013-9-30,85,74,69,76,71,68,99,91,68,29.94,29.88,4,1,9,0.19
2013-10-1,85,74,69,78,73,69,100,95,76,30.00,29.92,9,1,10,0.01
2013-10-2,87,76,71,77,74,71,100,92,73,30.03,29.93,5,1,10,0.01
2013-10-3,89,78,70,79,74,70,100,89,62,30.01,29.90,8,1,10,0.00
2013-10-4,88,77,70,79,74,70,100,91,68,30.00,29.91,7,1,16,0.01
2013-10-5,86,78,72,80,75,72,100,91,69,29.97,29.86,8,1,17,0.27
2013-10-6,75,69,56,73,67,54,100,91,72,29.96,29.83,12,2,18,0.01
2013-10-7,75,62,51,60,55,51,99,81,54,30.04,29.95,9,2,15,0.00
2013-10-8,78,62,50,62,56,49,100,83,51,30.05,29.97,4,1,9,0.00
2013-10-9,83,64,49,65,58,49,100,83,49,30.08,30.00,5,0,8,0.00
2013-10-10,83,68,58,70,64,58,100,89,58,30.10,29.97,5,1,8,0.01
2013-10-11,86,72,61,76,69,61,100,91,64,30.03,29.93,7,1,11,0.01
2013-10-12,89,75,63,77,70,63,100,86,54,30.09,29.95,7,1,11,0.22
2013-10-13,88,76,70,76,72,69,100,89,60,30.15,30.01,4,0,7,0.01
2013-10-14,86,74,66,72,68,65,99,84,52,30.10,29.98,6,1,9,0.01
2013-10-15,86,72,61,73,68,60,100,87,56,30.03,29.91,6,1,10,0.00
2013-10-16,83,74,65,75,71,65,100,91,71,29.99,29.88,6,1,12,0.03
2013-10-17,73,67,58,72,65,57,99,93,82,30.01,29.89,11,2,12,0.00
2013-10-18,75,63,52,63,58,52,100,85,58,30.05,29.92,7,1,14,0.04
2013-10-19,74,64,57,65,60,55,99,89,65,30.03,29.90,8,2,15,1.09
2013-10-20,74,59,50,61,55,49,98,86,54,30.08,29.96,4,1,6,0.01
2013-10-21,72,61,50,66,59,50,100,93,77,30.05,29.92,4,0,8,0.01
2013-10-22,77,65,53,67,61,53,100,89,64,30.02,29.92,11,2,13,0.00
2013-10-23,75,59,47,58,52,47,100,82,43,30.12,30.02,9,1,11,0.01
2013-10-24,80,60,43,62,53,43,99,80,45,30.21,30.11,7,0,9,0.00
2013-10-25,69,57,45,55,48,44,99,76,45,30.39,30.21,9,2,15,0.01
2013-10-26,76,56,40,59,48,40,98,78,42,30.29,30.13,5,1,8,0.00
2013-10-27,72,59,47,66,57,46,100,94,80,30.14,30.03,7,0,11,0.00
2013-10-28,83,68,56,70,64,56,100,86,57,30.16,30.04,5,0,7,0.00
2013-10-29,81,68,57,70,64,57,100,88,66,30.20,30.12,12,1,14,0.01
2013-10-30,79,69,60,72,66,60,100,92,75,30.16,29.99,9,1,12,0.00
2013-10-31,80,71,66,73,70,66,99,95,78,29.98,29.77,18,2,23,1.24
2013-11-1,75,63,50,66,58,49,100,86,51,29.94,29.82,8,2,12,0.00
2013-11-2,71,58,48,57,50,44,100,78,39,30.17,29.91,12,3,17,0.01
2013-11-3,68,52,39,51,45,39,99,81,46,30.24,30.11,7,1,11,0.00
2013-11-4,76,59,42,60,53,41,100,83,55,30.20,30.11,11,1,14,0.00
2013-11-5,75,67,61,67,63,57,94,84,72,30.18,30.08,21,3,21,0.00
2013-11-6,79,68,59,73,66,58,99,93,79,30.10,30.02,6,1,14,0.08
2013-11-7,66,56,46,65,50,42,97,79,51,30.33,30.10,15,5,22,0.00
2013-11-8,65,50,40,47,42,38,97,76,39,30.35,30.19,7,2,14,0.00
2013-11-9,73,56,39,60,51,39,99,84,56,30.24,30.14,6,1,7,0.00
2013-11-10,75,61,50,60,54,49,97,79,50,30.26,30.16,7,1,12,0.00
2013-11-11,76,57,43,59,51,43,100,83,48,30.24,30.12,5,1,6,0.00
2013-11-12,71,52,38,58,46,32,100,83,61,30.51,30.18,18,4,27,0.01
2013-11-13,57,41,31,35,30,27,93,67,32,30.55,30.41,12,3,14,0.00
2013-11-14,68,48,28,51,41,27,97,80,52,30.41,30.11,5,1,10,0.00
2013-11-15,74,63,54,65,59,52,95,86,74,30.12,29.96,7,1,9,0.00
2013-11-16,80,70,63,72,67,62,100,91,74,30.03,29.91,8,2,13,0.00
2013-11-17,81,74,69,76,72,69,100,94,84,29.95,29.85,9,2,14,0.03
2013-11-18,79,69,56,73,54,42,100,64,31,30.10,29.93,21,2,21,0.00
2013-11-19,66,53,40,43,38,31,88,62,28,30.17,30.04,8,2,14,0.00
2013-11-20,74,52,35,51,43,34,98,76,38,30.11,30.00,4,1,9,0.00
2013-11-21,70,63,50,67,61,49,99,96,90,30.16,30.07,8,2,16,0.00
2013-11-22,72,66,60,69,65,59,99,95,86,30.25,30.13,7,1,15,0.22
2013-11-23,63,55,46,62,53,42,99,94,84,30.35,30.16,11,4,18,0.11
2013-11-24,53,45,38,42,32,29,86,64,42,30.41,30.28,15,4,20,0.00
2013-11-25,48,45,40,47,39,30,97,83,62,30.30,29.89,8,2,16,0.33
2013-11-26,48,44,40,47,42,38,96,94,92,30.09,29.78,14,5,22,1.02
2013-11-27,48,39,28,38,32,26,95,78,49,30.42,30.08,13,4,17,0.00
2013-11-28,52,34,24,35,28,22,95,80,44,30.48,30.39,8,1,10,0.01
2013-11-29,62,39,24,38,30,22,97,75,30,30.54,30.41,6,1,9,0.00
2013-11-30,68,43,26,45,35,24,97,77,35,30.43,30.25,3,0,6,0.01
2013-12-1,71,51,32,54,45,31,98,82,51,30.26,29.98,5,1,11,0.00
2013-12-2,74,63,52,65,59,50,96,87,72,29.99,29.73,13,1,15,0.00
2013-12-3,78,69,60,69,66,60,99,89,65,29.78,29.68,10,2,18,0.00
2013-12-4,81,73,69,72,69,68,96,89,72,29.90,29.78,10,2,16,0.00
2013-12-5,83,74,70,73,71,69,97,90,69,29.98,29.87,9,2,18,0.01
2013-12-6,74,54,39,72,52,37,97,94,88,30.25,29.89,12,4,17,0.25
2013-12-7,39,37,35,37,35,33,96,93,89,30.35,30.24,10,4,16,0.01
2013-12-8,47,43,38,46,42,37,96,95,94,30.25,30.02,5,2,8,1.70
2013-12-9,52,48,41,49,45,38,94,91,88,30.15,30.05,11,2,16,0.08
2013-12-10,50,40,31,39,35,29,90,83,61,30.39,30.15,13,4,22,0.04
2013-12-11,51,42,30,47,38,27,91,85,74,30.42,30.32,5,1,11,0.00
2013-12-12,56,42,30,39,34,28,93,76,43,30.51,30.36,10,2,17,0.00
2013-12-13,60,47,30,56,42,28,94,82,67,30.36,29.91,5,2,14,0.00
2013-12-14,68,60,48,64,57,45,98,90,80,30.10,29.80,14,3,21,0.47
2013-12-15,53,44,31,45,38,30,96,81,59,30.31,30.11,16,4,17,0.00
2013-12-16,62,41,27,41,34,26,99,81,37,30.36,30.23,3,0,6,0.01
2013-12-17,65,43,28,46,36,27,99,81,40,30.34,30.23,9,1,10,0.00
2013-12-18,67,46,31,48,39,30,99,80,43,30.36,30.20,7,1,11,0.00
2013-12-19,73,58,38,62,54,37,98,85,62,30.19,29.99,10,2,14,0.00
2013-12-20,78,69,59,70,65,57,98,87,72,30.03,29.91,12,2,16,0.00
2013-12-21,79,73,61,72,69,60,96,88,75,29.90,29.68,16,4,26,0.29
2013-12-22,65,59,52,61,58,51,98,94,81,30.18,29.80,8,1,15,0.29
2013-12-23,51,42,31,50,37,29,95,84,63,30.49,30.16,12,5,19,0.00
2013-12-24,54,37,25,35,30,24,97,80,47,30.54,30.37,8,1,13,0.01
2013-12-25,50,36,26,35,30,25,96,80,46,30.41,30.30,8,1,9,0.00
2013-12-26,59,42,30,41,35,29,97,79,45,30.40,30.27,9,1,9,0.01
2013-12-27,55,47,35,40,37,34,97,71,50,30.43,30.28,6,2,9,0.00
2013-12-28,51,47,44,50,45,36,98,91,63,30.29,29.97,5,2,10,0.56
2013-12-29,62,49,40,48,44,38,97,84,50,30.12,29.99,8,2,10,0.00
2013-12-30,54,46,38,48,43,36,97,90,76,30.34,30.11,6,1,10,0.00
2013-12-31,47,43,39,42,39,37,92,87,78,30.42,30.30,7,2,9,0.00
2014-1-1,57,50,44,54,49,41,97,94,87,30.31,30.02,5,1,8,0.31
2014-1-2,57,50,34,56,42,27,97,77,52,30.37,29.96,18,5,24,0.04